Terminal Aerodrome Forecast
Issued by NWS

Home | Current Version | Previous Version | Text Only | Print | Product List | Glossary On
Versions: 1 2 3 4 5 6 7 8 9 10 11 12
371
FTUS45 KABQ 291727
TAFSAF
TAF
KSAF 291727Z 2918/3018 16015KT P6SM FEW100
     FM291930 19011KT P6SM FEW110
     FM292130 22013G23KT P6SM SCT120
     FM300200 13010KT P6SM SCT140
     FM300900 03006KT P6SM SKC=

USA.gov is the U.S. government's official web portal to all federal, state and local government web resources and services.